Time;durP1;ratioP1;P1;durP2;ratioP2;P2;SDS_P1;SDS_P2;PMS_P1;PMS_P2;Temp;Humidity;BMP_temperature;BMP_pressure;BME280_temperature;BME280_humidity;BME280_pressure;Samples;Min_cycle;Max_cycle;Signal;HPM_P1;HPM_P2
2021/09/09 00:01:27;;;;;;;13.18;10.70;;;;;;;;;;4996142;28;20065;-76
2021/09/09 00:03:52;;;;;;;13.37;10.60;;;;;;;;;;4996388;28;20519;-76
2021/09/09 00:06:17;;;;;;;16.23;10.73;;;;;;;;;;4993527;28;20285;-76
2021/09/09 00:08:43;;;;;;;11.88;10.68;;;;;;;;;;4994190;28;20301;-76
2021/09/09 00:11:08;;;;;;;14.40;10.57;;;;;;;;;;4995506;28;20069;-76
2021/09/09 00:13:35;;;;;;;14.10;11.43;;;;;;;;;;4995684;28;20258;-76
2021/09/09 00:16:03;;;;;;;11.10;10.00;;;;;;;;;;4995800;28;20034;-77
2021/09/09 00:18:28;;;;;;;15.30;11.20;;;;;;;;;;4995761;28;20022;-76
2021/09/09 00:20:53;;;;;;;12.90;11.37;;;;;;;;;;4995767;28;20026;-76
2021/09/09 00:23:18;;;;;;;14.85;11.55;;;;;;;;;;4994844;28;20269;-76
2021/09/09 00:25:43;;;;;;;12.90;11.55;;;;;;;;;;4995172;28;20076;-76
2021/09/09 00:28:09;;;;;;;13.23;11.17;;;;;;;;;;4995401;28;20034;-76
2021/09/09 00:30:34;;;;;;;16.83;10.90;;;;;;;;;;4994473;28;20269;-77
2021/09/09 00:32:59;;;;;;;12.88;11.50;;;;;;;;;;4995162;28;20703;-76
2021/09/09 00:35:27;;;;;;;14.07;11.57;;;;;;;;;;4994490;28;20077;-76
2021/09/09 00:37:52;;;;;;;15.63;11.32;;;;;;;;;;4995052;28;20501;-77
2021/09/09 00:40:18;;;;;;;16.15;11.43;;;;;;;;;;4994439;28;20014;-76
2021/09/09 00:42:45;;;;;;;12.95;11.55;;;;;;;;;;4995254;28;20153;-76
2021/09/09 00:45:11;;;;;;;14.68;12.10;;;;;;;;;;5010621;28;20506;-77
2021/09/09 00:47:36;;;;;;;16.92;13.48;;;;;;;;;;4995363;28;20030;-76
2021/09/09 00:50:02;;;;;;;15.82;12.48;;;;;;;;;;4994630;28;20034;-76
2021/09/09 00:52:27;;;;;;;13.25;11.60;;;;;;;;;;4994153;28;20462;-76
2021/09/09 00:54:53;;;;;;;12.55;11.23;;;;;;;;;;4994765;28;20026;-76
2021/09/09 00:57:18;;;;;;;15.00;11.80;;;;;;;;;;4993318;28;20384;-76
2021/09/09 00:59:47;;;;;;;15.50;12.00;;;;;;;;;;4995030;28;20034;-76
2021/09/09 01:02:13;;;;;;;15.55;12.13;;;;;;;;;;4994226;28;20049;-76
2021/09/09 01:04:38;;;;;;;14.65;11.80;;;;;;;;;;4994975;28;20014;-76
2021/09/09 01:07:03;;;;;;;14.02;11.70;;;;;;;;;;4992465;28;20014;-76
2021/09/09 01:09:29;;;;;;;16.08;11.90;;;;;;;;;;4993912;28;20050;-75
2021/09/09 01:11:54;;;;;;;15.65;11.55;;;;;;;;;;4994189;28;20018;-76
2021/09/09 01:14:19;;;;;;;14.10;12.25;;;;;;;;;;4994588;28;20080;-76
2021/09/09 01:16:45;;;;;;;13.57;12.15;;;;;;;;;;4994041;28;20057;-76
2021/09/09 01:19:11;;;;;;;13.45;11.40;;;;;;;;;;4994289;28;20030;-76
2021/09/09 01:21:37;;;;;;;14.43;12.50;;;;;;;;;;4994757;28;20045;-75
2021/09/09 01:24:02;;;;;;;16.60;13.30;;;;;;;;;;4993830;28;20027;-75
2021/09/09 01:26:29;;;;;;;16.75;13.02;;;;;;;;;;4994396;28;20030;-75
2021/09/09 01:28:55;;;;;;;16.77;12.88;;;;;;;;;;4993792;28;20037;-76
2021/09/09 01:31:20;;;;;;;13.23;11.80;;;;;;;;;;4993746;28;20037;-76
2021/09/09 01:33:46;;;;;;;13.45;12.05;;;;;;;;;;5009760;28;20022;-76
2021/09/09 01:36:11;;;;;;;16.23;13.63;;;;;;;;;;4994333;28;20419;-76
2021/09/09 01:38:36;;;;;;;15.23;13.20;;;;;;;;;;4993101;28;20081;-77
2021/09/09 01:41:03;;;;;;;13.70;12.13;;;;;;;;;;4994069;28;20308;-77
2021/09/09 01:43:29;;;;;;;16.90;12.38;;;;;;;;;;4994052;28;20250;-77
2021/09/09 01:45:54;;;;;;;13.70;12.20;;;;;;;;;;4993391;28;20022;-76
2021/09/09 01:48:20;;;;;;;14.93;13.33;;;;;;;;;;4994112;28;20133;-76
2021/09/09 01:50:47;;;;;;;18.43;13.33;;;;;;;;;;4994293;28;20300;-76
2021/09/09 01:53:12;;;;;;;15.20;12.80;;;;;;;;;;4993748;28;20725;-76
2021/09/09 01:55:38;;;;;;;20.00;13.70;;;;;;;;;;5009524;28;20101;-76
2021/09/09 01:58:03;;;;;;;14.07;12.13;;;;;;;;;;4994119;28;20141;-76
2021/09/09 02:00:28;;;;;;;15.80;12.55;;;;;;;;;;4994221;28;20041;-76
2021/09/09 02:02:53;;;;;;;14.35;12.95;;;;;;;;;;4993262;28;20027;-77
2021/09/09 02:05:18;;;;;;;14.17;12.47;;;;;;;;;;4994110;28;20027;-77
2021/09/09 02:07:44;;;;;;;15.20;11.67;;;;;;;;;;4994090;28;20261;-77
2021/09/09 02:10:09;;;;;;;13.82;12.02;;;;;;;;;;5005681;28;20301;-77
2021/09/09 02:12:35;;;;;;;18.90;13.93;;;;;;;;;;4974488;28;20027;-77
2021/09/09 02:15:03;;;;;;;15.05;12.75;;;;;;;;;;5003351;28;20109;-77
2021/09/09 02:17:28;;;;;;;15.85;12.48;;;;;;;;;;4997888;28;20018;-77
2021/09/09 02:19:55;;;;;;;16.17;12.90;;;;;;;;;;4997315;28;20411;-77
2021/09/09 02:22:23;;;;;;;15.32;13.57;;;;;;;;;;4997149;28;20265;-76
2021/09/09 02:24:48;;;;;;;14.65;12.68;;;;;;;;;;4997685;28;20089;-76
2021/09/09 02:27:19;;;;;;;14.70;13.20;;;;;;;;;;4997752;28;20118;-77
2021/09/09 02:29:46;;;;;;;19.80;13.40;;;;;;;;;;4997871;28;20341;-76
2021/09/09 02:32:13;;;;;;;15.57;13.20;;;;;;;;;;4997271;28;20030;-76
2021/09/09 02:34:38;;;;;;;21.95;13.15;;;;;;;;;;4997661;28;20022;-76
2021/09/09 02:37:04;;;;;;;16.38;12.55;;;;;;;;;;4996512;28;20340;-76
2021/09/09 02:39:29;;;;;;;16.83;13.10;;;;;;;;;;4997317;28;20018;-76
2021/09/09 02:41:55;;;;;;;13.63;12.17;;;;;;;;;;4996785;28;20027;-76
2021/09/09 02:44:20;;;;;;;17.50;12.75;;;;;;;;;;4996681;28;20273;-76
2021/09/09 02:46:45;;;;;;;14.70;13.07;;;;;;;;;;4997289;28;20030;-76
2021/09/09 02:49:10;;;;;;;16.95;13.82;;;;;;;;;;4997242;28;20045;-77
2021/09/09 02:51:36;;;;;;;15.65;12.98;;;;;;;;;;4997516;28;20030;-77
2021/09/09 02:54:01;;;;;;;17.45;13.15;;;;;;;;;;4996624;28;20026;-77
2021/09/09 02:56:26;;;;;;;14.82;13.23;;;;;;;;;;4997259;28;20080;-77
2021/09/09 02:58:57;;;;;;;16.92;13.07;;;;;;;;;;4996603;28;20022;-77
2021/09/09 03:01:22;;;;;;;16.00;13.25;;;;;;;;;;4996795;28;20481;-77
2021/09/09 03:03:47;;;;;;;14.52;13.02;;;;;;;;;;4997012;28;20090;-77
2021/09/09 03:06:13;;;;;;;16.07;13.00;;;;;;;;;;4995813;28;20055;-77
2021/09/09 03:08:38;;;;;;;17.25;12.57;;;;;;;;;;4996785;28;20325;-77
2021/09/09 03:11:05;;;;;;;15.33;12.77;;;;;;;;;;4996882;28;20097;-77
2021/09/09 03:13:31;;;;;;;13.68;12.27;;;;;;;;;;4996621;28;20287;-77
2021/09/09 03:15:56;;;;;;;14.95;12.98;;;;;;;;;;4996406;28;20018;-76
2021/09/09 03:18:21;;;;;;;17.20;13.10;;;;;;;;;;4996370;28;20065;-77
2021/09/09 03:20:46;;;;;;;15.55;12.73;;;;;;;;;;4996868;28;20018;-76
2021/09/09 03:23:11;;;;;;;18.30;13.07;;;;;;;;;;4996802;28;20030;-77
2021/09/09 03:25:37;;;;;;;16.08;12.82;;;;;;;;;;4995807;28;20297;-77
2021/09/09 03:28:04;;;;;;;16.48;13.57;;;;;;;;;;5012094;28;20030;-77
2021/09/09 03:30:29;;;;;;;13.35;12.02;;;;;;;;;;4996764;28;20359;-76
2021/09/09 03:32:55;;;;;;;20.27;14.40;;;;;;;;;;4996149;28;20018;-77
2021/09/09 03:35:20;;;;;;;21.10;12.90;;;;;;;;;;4979234;28;20289;-77
2021/09/09 03:37:50;;;;;;;15.20;13.60;;;;;;;;;;4995905;28;20014;-76
2021/09/09 03:40:15;;;;;;;14.77;12.50;;;;;;;;;;4995365;28;20022;-76
2021/09/09 03:42:43;;;;;;;14.98;13.48;;;;;;;;;;4996344;28;20360;-76
2021/09/09 03:45:08;;;;;;;14.35;12.75;;;;;;;;;;4994661;28;20010;-76
2021/09/09 03:47:33;;;;;;;14.77;13.27;;;;;;;;;;4996244;28;20521;-76
2021/09/09 03:49:59;;;;;;;14.35;12.85;;;;;;;;;;5007459;28;20432;-76
2021/09/09 03:52:25;;;;;;;17.38;13.45;;;;;;;;;;5011045;28;20113;-76
2021/09/09 03:54:50;;;;;;;16.33;13.52;;;;;;;;;;4996159;28;20077;-76
2021/09/09 03:57:17;;;;;;;15.40;13.17;;;;;;;;;;5010635;28;20022;-77
2021/09/09 03:59:43;;;;;;;15.30;13.15;;;;;;;;;;4995926;28;20257;-77
2021/09/09 04:02:08;;;;;;;16.70;12.75;;;;;;;;;;4995026;28;20017;-77
2021/09/09 04:04:35;;;;;;;14.43;12.60;;;;;;;;;;4996006;28;20097;-77
2021/09/09 04:07:01;;;;;;;16.58;13.60;;;;;;;;;;5011221;28;20103;-77
2021/09/09 04:09:28;;;;;;;17.15;13.00;;;;;;;;;;4995813;28;20489;-77
2021/09/09 04:11:55;;;;;;;15.85;12.45;;;;;;;;;;4995881;28;20358;-75
2021/09/09 04:14:21;;;;;;;17.17;13.60;;;;;;;;;;4995990;28;20037;-74
2021/09/09 04:16:47;;;;;;;16.08;13.75;;;;;;;;;;5010604;28;20388;-76
2021/09/09 04:19:13;;;;;;;15.23;13.63;;;;;;;;;;4995834;28;20019;-78
2021/09/09 04:21:38;;;;;;;15.40;13.77;;;;;;;;;;5010979;28;20029;-77
2021/09/09 04:24:05;;;;;;;17.67;13.47;;;;;;;;;;4995063;28;20029;-77
2021/09/09 04:26:30;;;;;;;19.88;14.90;;;;;;;;;;4994582;28;20249;-77
2021/09/09 04:28:56;;;;;;;15.37;13.73;;;;;;;;;;4993638;28;20034;-77
2021/09/09 04:31:23;;;;;;;17.40;13.20;;;;;;;;;;4993693;28;20270;-79
2021/09/09 04:33:48;;;;;;;15.18;12.88;;;;;;;;;;4994371;28;20444;-76
2021/09/09 04:36:14;;;;;;;17.50;12.57;;;;;;;;;;4994050;28;20030;-76
2021/09/09 04:38:39;;;;;;;18.80;13.57;;;;;;;;;;4994595;28;20336;-76
2021/09/09 04:41:04;;;;;;;16.27;13.18;;;;;;;;;;4994411;28;20340;-76
2021/09/09 04:43:34;;;;;;;19.30;12.63;;;;;;;;;;4995216;28;20014;-75
2021/09/09 04:46:03;;;;;;;17.50;13.43;;;;;;;;;;4994416;28;20385;-76
2021/09/09 04:48:29;;;;;;;16.98;14.25;;;;;;;;;;4994977;28;20026;-75
2021/09/09 04:50:57;;;;;;;19.33;13.82;;;;;;;;;;4995164;28;20329;-79
2021/09/09 04:53:22;;;;;;;19.83;13.55;;;;;;;;;;4994349;28;20065;-75
2021/09/09 04:55:47;;;;;;;15.38;13.77;;;;;;;;;;4994562;28;20343;-80
2021/09/09 04:58:12;;;;;;;16.95;12.80;;;;;;;;;;4994461;28;20097;-78
2021/09/09 05:00:37;;;;;;;17.85;13.38;;;;;;;;;;4994154;28;20064;-78
2021/09/09 05:03:07;;;;;;;18.10;14.38;;;;;;;;;;4994305;28;20018;-78
2021/09/09 05:05:33;;;;;;;15.75;13.85;;;;;;;;;;4994342;28;20026;-77
2021/09/09 05:08:00;;;;;;;16.63;13.87;;;;;;;;;;4994405;28;20025;-78
2021/09/09 05:10:26;;;;;;;15.25;12.27;;;;;;;;;;4992859;28;20364;-84
2021/09/09 05:12:51;;;;;;;19.65;14.30;;;;;;;;;;4994088;28;20415;-77
2021/09/09 05:15:16;;;;;;;14.88;12.55;;;;;;;;;;4994102;28;20487;-78
2021/09/09 05:17:44;;;;;;;15.45;12.60;;;;;;;;;;4994274;28;20014;-78
2021/09/09 05:20:09;;;;;;;19.30;13.50;;;;;;;;;;4994186;28;20098;-78
2021/09/09 05:22:37;;;;;;;17.27;13.00;;;;;;;;;;4994335;28;20046;-78
2021/09/09 05:25:05;;;;;;;15.23;13.10;;;;;;;;;;4993589;28;20018;-78
2021/09/09 05:27:30;;;;;;;14.40;12.82;;;;;;;;;;4994155;28;20014;-78
2021/09/09 05:29:59;;;;;;;17.08;13.57;;;;;;;;;;4998683;28;20066;-78
2021/09/09 05:32:24;;;;;;;15.20;12.77;;;;;;;;;;4993998;28;20086;-79
2021/09/09 05:34:49;;;;;;;15.98;13.07;;;;;;;;;;4994270;28;20109;-78
2021/09/09 05:37:15;;;;;;;15.00;12.75;;;;;;;;;;4994174;28;20069;-79
2021/09/09 05:39:40;;;;;;;16.20;13.40;;;;;;;;;;4994451;28;20025;-78
2021/09/09 05:42:05;;;;;;;17.23;12.98;;;;;;;;;;4993737;28;20019;-78
2021/09/09 05:44:30;;;;;;;19.00;13.25;;;;;;;;;;4993564;28;20459;-83
2021/09/09 05:46:56;;;;;;;16.83;13.38;;;;;;;;;;4993556;28;20463;-80
2021/09/09 05:49:23;;;;;;;17.45;13.18;;;;;;;;;;4989623;28;20018;-79
2021/09/09 05:51:49;;;;;;;18.38;12.90;;;;;;;;;;4986119;28;20096;-80
2021/09/09 05:54:14;;;;;;;30.87;13.10;;;;;;;;;;4992920;28;20022;-78
2021/09/09 05:56:39;;;;;;;14.55;12.40;;;;;;;;;;4993589;28;20277;-78
2021/09/09 05:59:04;;;;;;;17.38;12.40;;;;;;;;;;4992969;28;20025;-78
2021/09/09 06:01:30;;;;;;;16.35;12.98;;;;;;;;;;4993166;28;20010;-77
2021/09/09 06:03:59;;;;;;;16.75;12.73;;;;;;;;;;4993983;28;20019;-79
2021/09/09 06:06:25;;;;;;;18.83;12.32;;;;;;;;;;4992556;28;20022;-78
2021/09/09 06:08:50;;;;;;;17.30;12.85;;;;;;;;;;4993488;28;20054;-80
2021/09/09 06:11:18;;;;;;;15.75;11.95;;;;;;;;;;4994246;28;20042;-80
2021/09/09 06:13:43;;;;;;;21.02;12.77;;;;;;;;;;4993145;28;20031;-81
2021/09/09 06:16:09;;;;;;;16.60;12.45;;;;;;;;;;4993824;28;20033;-81
2021/09/09 06:18:34;;;;;;;16.10;12.43;;;;;;;;;;4992722;28;20018;-81
2021/09/09 06:21:00;;;;;;;16.35;11.90;;;;;;;;;;4993990;28;20253;-81
2021/09/09 06:23:27;;;;;;;17.35;12.13;;;;;;;;;;4993228;28;20371;-81
2021/09/09 06:25:53;;;;;;;14.43;11.13;;;;;;;;;;4994003;28;20022;-81
2021/09/09 06:28:20;;;;;;;16.02;12.05;;;;;;;;;;4993641;28;20110;-80
2021/09/09 06:30:45;;;;;;;13.70;11.48;;;;;;;;;;4993976;28;20443;-81
2021/09/09 06:33:11;;;;;;;14.13;11.17;;;;;;;;;;4993944;28;20105;-81
2021/09/09 06:35:37;;;;;;;17.85;11.50;;;;;;;;;;4993917;28;20281;-81
2021/09/09 06:38:02;;;;;;;16.50;11.30;;;;;;;;;;4993226;28;20018;-81
2021/09/09 06:40:28;;;;;;;16.98;10.63;;;;;;;;;;5008972;28;20346;-81
2021/09/09 06:42:53;;;;;;;17.27;11.10;;;;;;;;;;4993102;28;20023;-81
2021/09/09 06:45:18;;;;;;;13.23;11.18;;;;;;;;;;4990751;28;20030;-73
2021/09/09 06:47:44;;;;;;;18.00;10.95;;;;;;;;;;4987610;28;20014;-74
2021/09/09 06:50:09;;;;;;;17.35;10.35;;;;;;;;;;4989761;28;20443;-76
2021/09/09 06:52:34;;;;;;;15.25;10.93;;;;;;;;;;4985856;28;20027;-75
2021/09/09 06:55:00;;;;;;;14.95;10.00;;;;;;;;;;5006463;28;20443;-74
2021/09/09 06:57:25;;;;;;;13.52;10.65;;;;;;;;;;4993522;28;20053;-75
2021/09/09 06:59:50;;;;;;;15.23;10.55;;;;;;;;;;4994200;28;20034;-74
2021/09/09 07:02:15;;;;;;;17.73;9.70;;;;;;;;;;4997230;28;20018;-73
2021/09/09 07:04:43;;;;;;;14.10;10.20;;;;;;;;;;4997230;28;20259;-79
2021/09/09 07:07:08;;;;;;;13.35;10.02;;;;;;;;;;4994453;28;20469;-79
2021/09/09 07:09:33;;;;;;;11.82;9.68;;;;;;;;;;4995177;28;20141;-77
2021/09/09 07:11:58;;;;;;;14.23;9.93;;;;;;;;;;4993172;28;20101;-77
2021/09/09 07:14:24;;;;;;;15.60;9.40;;;;;;;;;;4996696;28;20045;-79
2021/09/09 07:16:50;;;;;;;13.02;9.20;;;;;;;;;;4996639;28;20304;-80
2021/09/09 07:19:15;;;;;;;15.07;9.48;;;;;;;;;;4994466;28;20019;-83
2021/09/09 07:21:43;;;;;;;12.50;9.50;;;;;;;;;;4995705;28;20019;-81
2021/09/09 07:24:10;;;;;;;13.55;11.07;;;;;;;;;;4992392;28;20010;-81
2021/09/09 07:26:36;;;;;;;15.40;10.80;;;;;;;;;;4994930;28;20027;-81
2021/09/09 07:29:01;;;;;;;15.88;11.43;;;;;;;;;;4996242;28;20084;-80
2021/09/09 07:31:26;;;;;;;13.55;9.48;;;;;;;;;;4996090;28;20404;-80
2021/09/09 07:33:51;;;;;;;12.02;8.93;;;;;;;;;;4996047;28;20196;-80
2021/09/09 07:36:17;;;;;;;11.60;9.15;;;;;;;;;;4995534;28;20037;-81
2021/09/09 07:45:00;;;;;;;10.95;8.90;;;;;;;;;;5001462;28;20019;-79
2021/09/09 07:47:25;;;;;;;11.52;8.50;;;;;;;;;;5010924;28;20417;-76
2021/09/09 07:49:50;;;;;;;15.38;8.88;;;;;;;;;;5008874;28;20097;-80
2021/09/09 07:52:15;;;;;;;10.27;8.40;;;;;;;;;;5002656;28;20066;-76
2021/09/09 07:54:41;;;;;;;11.48;9.00;;;;;;;;;;4999076;28;20251;-77
2021/09/09 08:00:26;;;;;;;9.05;7.70;;;;;;;;;;5002227;28;20010;-77
2021/09/09 08:05:54;;;;;;;12.85;8.15;;;;;;;;;;4998672;28;20028;-79
2021/09/09 08:08:22;;;;;;;9.57;8.30;;;;;;;;;;5007183;28;20011;-79
2021/09/09 08:10:48;;;;;;;12.50;8.10;;;;;;;;;;5007575;28;20023;-79
2021/09/09 08:13:13;;;;;;;11.98;8.73;;;;;;;;;;4992242;28;20467;-79
2021/09/09 08:15:39;;;;;;;13.90;7.78;;;;;;;;;;4997559;28;20044;-79
2021/09/09 08:18:04;;;;;;;13.63;7.80;;;;;;;;;;5012174;28;20348;-79
2021/09/09 08:20:29;;;;;;;10.10;7.82;;;;;;;;;;5010723;28;20018;-80
2021/09/09 08:22:54;;;;;;;10.63;7.63;;;;;;;;;;4998677;28;20064;-79
2021/09/09 08:25:22;;;;;;;12.33;7.70;;;;;;;;;;4994368;28;20019;-80
2021/09/09 08:27:48;;;;;;;11.50;8.02;;;;;;;;;;4994810;28;20694;-79
2021/09/09 08:30:14;;;;;;;10.00;7.60;;;;;;;;;;5010291;28;20145;-79
2021/09/09 08:32:41;;;;;;;11.63;7.18;;;;;;;;;;4994783;28;20054;-79
2021/09/09 08:35:07;;;;;;;12.18;7.38;;;;;;;;;;5010616;28;20033;-80
2021/09/09 08:37:32;;;;;;;9.27;7.75;;;;;;;;;;4995229;28;20018;-80
2021/09/09 08:40:00;;;;;;;15.23;7.90;;;;;;;;;;4997749;28;20088;-79
2021/09/09 08:42:26;;;;;;;12.85;7.40;;;;;;;;;;5010887;28;20015;-79
2021/09/09 08:44:51;;;;;;;11.95;7.82;;;;;;;;;;4994478;28;20102;-79
2021/09/09 08:47:19;;;;;;;9.35;7.18;;;;;;;;;;4993928;28;20328;-79
2021/09/09 08:49:44;;;;;;;10.25;7.05;;;;;;;;;;4994036;28;20071;-80
2021/09/09 08:52:11;;;;;;;12.67;6.97;;;;;;;;;;4994579;28;20061;-80
2021/09/09 08:54:36;;;;;;;9.85;7.65;;;;;;;;;;4994597;28;20257;-80
2021/09/09 08:57:04;;;;;;;13.70;7.57;;;;;;;;;;4994456;28;20034;-81
2021/09/09 08:59:29;;;;;;;9.30;7.30;;;;;;;;;;4994872;28;20014;-77
2021/09/09 09:01:57;;;;;;;10.00;7.10;;;;;;;;;;4990542;28;20034;-77
2021/09/09 09:07:29;;;;;;;9.45;7.65;;;;;;;;;;4992847;28;20029;-77
2021/09/09 09:10:03;;;;;;;12.85;7.72;;;;;;;;;;4994440;28;20046;-77
2021/09/09 09:12:38;;;;;;;12.50;7.47;;;;;;;;;;4994606;28;20102;-76
2021/09/09 09:15:17;;;;;;;19.08;7.78;;;;;;;;;;4989856;28;20505;-77
2021/09/09 09:18:02;;;;;;;12.82;7.00;;;;;;;;;;4989493;28;20089;-76
2021/09/09 09:20:46;;;;;;;9.90;7.38;;;;;;;;;;4994610;28;20025;-76
2021/09/09 09:23:17;;;;;;;7.80;7.00;;;;;;;;;;4995456;28;20033;-76
2021/09/09 09:25:43;;;;;;;12.43;7.50;;;;;;;;;;5010026;28;20030;-77
2021/09/09 09:28:08;;;;;;;11.52;7.55;;;;;;;;;;4994227;28;20033;-76
2021/09/09 09:30:33;;;;;;;10.50;6.93;;;;;;;;;;4994302;28;20097;-77
2021/09/09 09:32:58;;;;;;;11.33;7.13;;;;;;;;;;4994189;28;20344;-76
2021/09/09 09:35:26;;;;;;;12.52;7.05;;;;;;;;;;4993929;28;20331;-77
2021/09/09 09:37:55;;;;;;;13.48;7.70;;;;;;;;;;4993680;28;20481;-76
2021/09/09 09:40:24;;;;;;;9.93;7.35;;;;;;;;;;4992769;28;20018;-77
2021/09/09 09:42:49;;;;;;;14.52;6.75;;;;;;;;;;4994293;28;20098;-77
2021/09/09 09:45:17;;;;;;;10.57;7.05;;;;;;;;;;4991168;28;20101;-76
2021/09/09 09:47:45;;;;;;;11.50;7.35;;;;;;;;;;4992215;28;20069;-80
2021/09/09 09:50:21;;;;;;;11.25;6.57;;;;;;;;;;4993378;28;20026;-80
2021/09/09 09:52:48;;;;;;;8.27;6.78;;;;;;;;;;4992890;28;20026;-80
2021/09/09 09:55:16;;;;;;;10.05;6.78;;;;;;;;;;4993023;28;20018;-80
2021/09/09 09:57:54;;;;;;;10.80;6.90;;;;;;;;;;4993643;28;20447;-80
2021/09/09 10:00:20;;;;;;;12.68;7.10;;;;;;;;;;4994235;28;20030;-81
2021/09/09 10:02:46;;;;;;;11.57;6.88;;;;;;;;;;4993938;28;20045;-80
2021/09/09 10:05:11;;;;;;;9.63;6.68;;;;;;;;;;4994059;28;20022;-80
2021/09/09 10:07:37;;;;;;;12.65;6.63;;;;;;;;;;4994028;28;20359;-80
2021/09/09 10:10:02;;;;;;;10.18;5.90;;;;;;;;;;4993805;28;20054;-80
2021/09/09 10:12:28;;;;;;;8.88;6.18;;;;;;;;;;5008892;28;20410;-80
2021/09/09 10:14:56;;;;;;;8.27;6.23;;;;;;;;;;4994026;28;20033;-80
2021/09/09 10:17:22;;;;;;;11.63;6.10;;;;;;;;;;4993812;28;20603;-80
2021/09/09 10:19:48;;;;;;;8.00;5.70;;;;;;;;;;4993905;28;20026;-81
2021/09/09 10:22:15;;;;;;;7.88;5.45;;;;;;;;;;4993832;28;20112;-81
2021/09/09 10:24:41;;;;;;;9.02;5.35;;;;;;;;;;5008029;28;20015;-81
2021/09/09 10:27:16;;;;;;;8.55;5.03;;;;;;;;;;4993716;28;20029;-81
2021/09/09 10:29:43;;;;;;;;;;;;;;;;;;4994451;28;20026;-82
2021/09/09 10:32:28;;;;;;;6.75;4.55;;;;;;;;;;4993887;28;19910;-81
2021/09/09 10:35:12;;;;;;;7.15;4.22;;;;;;;;;;4994724;28;20026;-82
2021/09/09 10:37:38;;;;;;;9.27;4.70;;;;;;;;;;4997302;28;20036;-82
2021/09/09 10:40:05;;;;;;;11.80;4.77;;;;;;;;;;4996779;28;20022;-84
2021/09/09 10:42:37;;;;;;;6.93;4.60;;;;;;;;;;4997402;28;20046;-83
2021/09/09 10:45:06;;;;;;;11.75;4.32;;;;;;;;;;5012608;28;20019;-82
2021/09/09 10:47:48;;;;;;;9.52;4.30;;;;;;;;;;4997275;28;20022;-84
2021/09/09 10:50:16;;;;;;;9.82;4.70;;;;;;;;;;5012996;28;20030;-84
2021/09/09 10:53:04;;;;;;;6.78;4.70;;;;;;;;;;4997332;28;20030;-89
2021/09/09 10:55:29;;;;;;;11.45;4.47;;;;;;;;;;4997258;28;20360;-85
2021/09/09 10:58:13;;;;;;;8.68;4.30;;;;;;;;;;4997401;28;20018;-84
2021/09/09 11:00:51;;;;;;;7.70;4.53;;;;;;;;;;4996636;28;20026;-80
2021/09/09 11:03:37;;;;;;;14.77;6.15;;;;;;;;;;4997465;28;20018;-81
2021/09/09 11:06:06;;;;;;;9.55;5.13;;;;;;;;;;4996918;28;20038;-82
2021/09/09 11:08:33;;;;;;;16.27;5.80;;;;;;;;;;4996966;28;20057;-76
2021/09/09 11:10:59;;;;;;;18.55;5.10;;;;;;;;;;4996053;28;20014;-86
2021/09/09 11:13:28;;;;;;;12.77;4.80;;;;;;;;;;5011242;28;20165;-86
2021/09/09 11:15:53;;;;;;;13.52;5.25;;;;;;;;;;4996763;28;20347;-85
2021/09/09 11:18:25;;;;;;;18.20;5.03;;;;;;;;;;4997018;28;20030;-76
2021/09/09 11:21:00;;;;;;;10.40;4.57;;;;;;;;;;4996575;28;20018;-76
2021/09/09 11:23:26;;;;;;;12.32;4.88;;;;;;;;;;4996643;28;20026;-77
2021/09/09 11:25:53;;;;;;;10.37;4.60;;;;;;;;;;4995541;28;20029;-77
2021/09/09 11:28:19;;;;;;;19.50;5.30;;;;;;;;;;4995358;28;20018;-76
2021/09/09 11:31:01;;;;;;;13.15;4.22;;;;;;;;;;4995448;28;20037;-76
2021/09/09 11:33:29;;;;;;;14.32;5.00;;;;;;;;;;4991548;28;20116;-78
2021/09/09 11:36:01;;;;;;;14.40;4.63;;;;;;;;;;4994733;28;20054;-65
2021/09/09 11:38:30;;;;;;;15.57;4.57;;;;;;;;;;4995187;28;20022;-68
2021/09/09 11:41:25;;;;;;;10.80;4.82;;;;;;;;;;4993968;28;20443;-66
2021/09/09 11:43:51;;;;;;;13.05;4.95;;;;;;;;;;4985027;28;20049;-67
2021/09/09 11:46:23;;;;;;;10.52;4.70;;;;;;;;;;4995830;28;20092;-66
2021/09/09 11:48:52;;;;;;;14.50;4.38;;;;;;;;;;4996175;28;20046;-65
2021/09/09 11:51:36;;;;;;;15.98;4.60;;;;;;;;;;4995033;28;20014;-66
2021/09/09 11:54:04;;;;;;;11.03;4.00;;;;;;;;;;4994896;28;20010;-67
2021/09/09 11:56:32;;;;;;;13.15;4.32;;;;;;;;;;5009906;28;20109;-65
2021/09/09 11:59:01;;;;;;;18.58;4.32;;;;;;;;;;4995609;28;20022;-68
2021/09/09 12:01:27;;;;;;;9.73;5.00;;;;;;;;;;4996128;28;20019;-65
2021/09/09 12:03:52;;;;;;;8.73;4.30;;;;;;;;;;4995946;28;20118;-65
2021/09/09 12:06:22;;;;;;;18.40;4.72;;;;;;;;;;4995436;28;20550;-67
2021/09/09 12:08:47;;;;;;;10.75;4.63;;;;;;;;;;4995710;28;20100;-66
2021/09/09 12:11:16;;;;;;;9.43;4.47;;;;;;;;;;4995677;28;20042;-67
2021/09/09 12:13:44;;;;;;;10.15;4.70;;;;;;;;;;4994521;28;20065;-66
2021/09/09 12:16:10;;;;;;;6.55;4.20;;;;;;;;;;4995953;28;20121;-66
2021/09/09 12:18:38;;;;;;;8.27;4.68;;;;;;;;;;4995352;28;20471;-67
2021/09/09 12:21:07;;;;;;;8.73;4.35;;;;;;;;;;4995792;28;20030;-66
2021/09/09 12:23:32;;;;;;;10.10;4.90;;;;;;;;;;4995313;28;20474;-67
2021/09/09 12:26:12;;;;;;;10.17;4.67;;;;;;;;;;4992007;28;20045;-67
2021/09/09 12:28:40;;;;;;;9.93;4.47;;;;;;;;;;5010533;28;20065;-67
2021/09/09 12:31:05;;;;;;;9.60;4.95;;;;;;;;;;4990938;28;20061;-67
2021/09/09 12:33:39;;;;;;;7.38;5.10;;;;;;;;;;4991853;28;20026;-66
2021/09/09 12:36:13;;;;;;;9.93;5.03;;;;;;;;;;4994829;28;20489;-66
2021/09/09 12:38:43;;;;;;;8.55;5.20;;;;;;;;;;4993565;28;20037;-66
2021/09/09 12:41:11;;;;;;;10.32;5.00;;;;;;;;;;4988156;28;20486;-65
2021/09/09 12:43:42;;;;;;;8.40;5.05;;;;;;;;;;4995892;28;20462;-67
2021/09/09 12:46:24;;;;;;;12.68;5.10;;;;;;;;;;4993148;28;20030;-67
2021/09/09 12:48:57;;;;;;;11.55;5.00;;;;;;;;;;4994762;28;20097;-67
2021/09/09 12:51:25;;;;;;;8.35;4.97;;;;;;;;;;4993631;28;20034;-66
2021/09/09 12:53:50;;;;;;;9.68;5.35;;;;;;;;;;4990986;28;20022;-68
2021/09/09 12:56:17;;;;;;;10.32;5.13;;;;;;;;;;4985457;28;20032;-67
2021/09/09 12:58:45;;;;;;;10.82;5.50;;;;;;;;;;4991541;28;20034;-66
2021/09/09 13:01:10;;;;;;;7.03;4.80;;;;;;;;;;4987325;28;20351;-67
2021/09/09 13:03:36;;;;;;;8.50;5.60;;;;;;;;;;4989815;28;20026;-67
2021/09/09 13:06:04;;;;;;;15.87;5.40;;;;;;;;;;4992177;28;20032;-67
2021/09/09 13:08:31;;;;;;;8.23;5.45;;;;;;;;;;4993359;28;20420;-66
2021/09/09 13:11:01;;;;;;;6.53;5.32;;;;;;;;;;4994190;28;20038;-66
2021/09/09 13:13:29;;;;;;;9.32;5.75;;;;;;;;;;4993672;28;20026;-66
2021/09/09 13:15:54;;;;;;;8.90;5.20;;;;;;;;;;4992649;28;20109;-68
2021/09/09 13:18:19;;;;;;;7.43;5.87;;;;;;;;;;4994165;28;20098;-66
2021/09/09 13:20:45;;;;;;;8.10;5.70;;;;;;;;;;5008341;28;20019;-67
2021/09/09 13:23:11;;;;;;;10.65;5.78;;;;;;;;;;4993984;28;20105;-66
2021/09/09 13:25:36;;;;;;;10.02;5.60;;;;;;;;;;4993958;28;20030;-68
2021/09/09 13:28:03;;;;;;;13.63;6.00;;;;;;;;;;4993835;28;20089;-67
2021/09/09 13:30:29;;;;;;;12.95;6.55;;;;;;;;;;4993683;28;20041;-67
2021/09/09 13:32:54;;;;;;;13.25;6.63;;;;;;;;;;4994077;28;20026;-64
2021/09/09 13:35:19;;;;;;;12.55;6.95;;;;;;;;;;4994030;28;20490;-64
2021/09/09 13:37:45;;;;;;;13.70;6.77;;;;;;;;;;4992629;28;20057;-64
2021/09/09 13:40:13;;;;;;;14.00;7.28;;;;;;;;;;5005494;28;20317;-63
2021/09/09 13:42:38;;;;;;;10.88;6.60;;;;;;;;;;4989931;28;20465;-64
2021/09/09 13:45:04;;;;;;;10.90;6.22;;;;;;;;;;4992784;28;20124;-63
2021/09/09 13:47:30;;;;;;;9.23;6.63;;;;;;;;;;4992462;28;20056;-63
2021/09/09 13:49:55;;;;;;;7.85;6.47;;;;;;;;;;4993717;28;20041;-64
2021/09/09 13:52:20;;;;;;;10.23;6.50;;;;;;;;;;4993868;28;20018;-63
2021/09/09 13:54:46;;;;;;;14.57;6.68;;;;;;;;;;4989936;28;20277;-63
2021/09/09 13:57:11;;;;;;;10.23;6.57;;;;;;;;;;4993263;28;20041;-63
2021/09/09 13:59:36;;;;;;;8.73;6.78;;;;;;;;;;4993478;28;20273;-63
2021/09/09 14:02:04;;;;;;;15.85;6.10;;;;;;;;;;4992945;28;20091;-64
2021/09/09 14:04:32;;;;;;;13.80;8.52;;;;;;;;;;4994022;28;20026;-64
2021/09/09 14:06:57;;;;;;;15.32;6.63;;;;;;;;;;4991493;28;20105;-63
2021/09/09 14:09:23;;;;;;;11.87;5.50;;;;;;;;;;4992575;28;20422;-63
2021/09/09 14:11:52;;;;;;;6.57;5.40;;;;;;;;;;4983828;28;20273;-63
2021/09/09 14:14:18;;;;;;;12.48;7.57;;;;;;;;;;4980872;28;20011;-64
2021/09/09 14:16:43;;;;;;;14.33;9.00;;;;;;;;;;4997216;28;20026;-64
2021/09/09 14:19:08;;;;;;;9.68;8.55;;;;;;;;;;4997732;28;20340;-63
2021/09/09 14:21:38;;;;;;;15.40;7.32;;;;;;;;;;4996366;28;20019;-65
2021/09/09 14:24:04;;;;;;;11.00;5.47;;;;;;;;;;4978929;28;20110;-64
2021/09/09 14:26:32;;;;;;;10.82;8.57;;;;;;;;;;4978343;28;20414;-66
2021/09/09 14:28:57;;;;;;;9.30;8.27;;;;;;;;;;4978469;28;20037;-65
2021/09/09 14:31:24;;;;;;;9.63;7.22;;;;;;;;;;4978359;28;20551;-64
2021/09/09 14:33:49;;;;;;;9.73;6.93;;;;;;;;;;4978374;28;20018;-66
2021/09/09 14:36:15;;;;;;;13.30;6.55;;;;;;;;;;4983564;28;20090;-65
2021/09/09 14:38:42;;;;;;;11.40;8.20;;;;;;;;;;4987760;28;20053;-66
2021/09/09 14:41:07;;;;;;;12.82;7.90;;;;;;;;;;4985605;28;20037;-66